Time;durP1;ratioP1;P1;durP2;ratioP2;P2;SDS_P1;SDS_P2;PMS_P1;PMS_P2;Temp;Humidity;BMP_temperature;BMP_pressure;BME280_temperature;BME280_humidity;BME280_pressure;Samples;Min_cycle;Max_cycle;Signal;HPM_P1;HPM_P2
2022/07/12 00:00:21;;;;;;;;;;;;;;;13.29;100.00;101723.75;5070306;28;19929;-88
2022/07/12 00:02:54;;;;;;;;;;;;;;;13.32;100.00;101728.69;5064789;28;19940;-90
2022/07/12 00:05:31;;;;;;;;;;;;;;;13.24;100.00;101730.03;5069824;28;19932;-90
2022/07/12 00:08:06;;;;;;;;;;;;;;;13.32;100.00;101739.63;5066429;28;19924;-90
2022/07/12 00:10:34;;;;;;;;;;;;;;;13.21;100.00;101733.31;5063889;28;19929;-89
2022/07/12 00:13:07;;;;;;;;;;;;;;;13.17;100.00;101734.94;5070174;28;19935;-89
2022/07/12 00:15:34;;;;;;;;;;;;;;;13.16;100.00;101733.31;5061720;28;19924;-89
2022/07/12 00:18:07;;;;;;;;;;;;;;;12.99;100.00;101739.81;5064631;28;19925;-90
2022/07/12 00:20:37;;;;;;;;;;;;;;;12.99;100.00;101734.38;5081852;28;19943;-88
2022/07/12 00:23:05;;;;;;;;;;;;;;;12.95;100.00;101735.19;5081614;28;19924;-88
2022/07/12 00:25:33;;;;;;;;;;;;;;;13.00;100.00;101737.94;5067761;28;19925;-89
2022/07/12 00:28:06;;;;;;;;;;;;;;;12.93;100.00;101735.47;5059752;28;19929;-89
2022/07/12 00:30:34;;;;;;;;;;;;;;;12.89;100.00;101731.63;5063317;28;20293;-89
2022/07/12 00:33:07;;;;;;;;;;;;;;;12.95;100.00;101727.78;5059060;28;19936;-90
2022/07/12 00:35:41;;;;;;;;;;;;;;;12.93;100.00;101732.72;5060048;28;19935;-89
2022/07/12 00:38:14;;;;;;;;;;;;;;;12.83;100.00;101727.22;5063767;28;19925;-87
2022/07/12 00:40:42;;;;;;;;;;;;;;;12.78;100.00;101729.97;5066290;28;19944;-90
2022/07/12 00:43:15;;;;;;;;;;;;;;;12.78;100.00;101722.56;5068739;28;19931;-86
2022/07/12 00:45:48;;;;;;;;;;;;;;;12.83;100.00;101730.78;5054631;28;19925;-86
2022/07/12 00:48:17;;;;;;;;;;;;;;;12.73;100.00;101722.56;5064833;28;19928;-87
2022/07/12 00:50:51;;;;;;;;;;;;;;;12.82;100.00;101715.47;5069978;28;19931;-88
2022/07/12 00:53:23;;;;;;;;;;;;;;;12.82;100.00;101709.22;5061651;28;20304;-88
2022/07/12 00:55:53;;;;;;;;;;;;;;;12.82;100.00;101701.81;5071954;28;19928;-87
2022/07/12 00:58:27;;;;;;;;;;;;;;;12.87;100.00;101709.19;5063809;28;19939;-85
2022/07/12 01:00:56;;;;;;;;;;;;;;;12.79;100.00;101707.00;5063938;28;19928;-87
2022/07/12 01:03:29;;;;;;;;;;;;;;;12.75;100.00;101702.09;5067677;28;20289;-87
2022/07/12 01:06:04;;;;;;;;;;;;;;;12.73;100.00;101695.25;5058032;28;19928;-89
2022/07/12 01:08:32;;;;;;;;;;;;;;;12.74;100.00;101705.09;5062777;28;19928;-88
2022/07/12 01:11:01;;;;;;;;;;;;;;;12.73;100.00;101700.69;5070102;28;20357;-87
2022/07/12 01:13:35;;;;;;;;;;;;;;;12.65;100.00;101696.59;5065907;28;19928;-88
2022/07/12 01:16:08;;;;;;;;;;;;;;;12.64;100.00;101707.81;5057548;28;19928;-89
2022/07/12 01:18:44;;;;;;;;;;;;;;;12.46;100.00;101696.25;5058956;28;19928;-88
2022/07/12 01:21:20;;;;;;;;;;;;;;;12.39;100.00;101695.69;5074679;28;19928;-89
2022/07/12 01:23:54;;;;;;;;;;;;;;;12.44;100.00;101692.16;5058128;28;20289;-86
2022/07/12 01:26:22;;;;;;;;;;;;;;;12.46;100.00;101696.25;5066795;28;20297;-88
2022/07/12 01:28:51;;;;;;;;;;;;;;;12.42;100.00;101706.88;5062725;28;19932;-88
2022/07/12 01:31:24;;;;;;;;;;;;;;;12.46;100.00;101701.72;5066713;28;20320;-86
2022/07/12 01:33:52;;;;;;;;;;;;;;;12.47;100.00;101711.56;5061398;28;19928;-87
2022/07/12 01:36:25;;;;;;;;;;;;;;;12.36;100.00;101705.25;5067237;28;19936;-88
2022/07/12 01:39:00;;;;;;;;;;;;;;;12.36;100.00;101715.31;5063715;28;19940;-88
2022/07/12 01:41:28;;;;;;;;;;;;;;;12.32;100.00;101714.22;5064092;28;19929;-88
2022/07/12 01:44:01;;;;;;;;;;;;;;;12.32;100.00;101714.22;5059127;28;19924;-87
2022/07/12 01:46:34;;;;;;;;;;;;;;;12.37;100.00;101706.03;5063579;28;19932;-89
2022/07/12 01:49:07;;;;;;;;;;;;;;;12.36;100.00;101702.50;5059931;28;19940;-87
2022/07/12 01:51:35;;;;;;;;;;;;;;;12.33;100.00;101713.13;5057336;28;19936;-87
2022/07/12 01:54:09;;;;;;;;;;;;;;;12.30;100.00;101708.22;5067124;28;19936;-86
2022/07/12 01:56:42;;;;;;;;;;;;;;;12.29;100.00;101710.13;5057686;28;19948;-87
2022/07/12 01:59:10;;;;;;;;;;;;;;;12.31;100.00;101707.13;5067052;28;19925;-88
2022/07/12 02:01:39;;;;;;;;;;;;;;;12.23;100.00;101713.91;5059780;28;19929;-86
2022/07/12 02:04:12;;;;;;;;;;;;;;;12.15;100.00;101715.25;5063407;28;19929;-86
2022/07/12 02:06:40;;;;;;;;;;;;;;;12.20;100.00;101709.78;5067389;28;19928;-87
2022/07/12 02:09:14;;;;;;;;;;;;;;;12.17;100.00;101709.53;5066000;28;19992;-87
2022/07/12 02:11:47;;;;;;;;;;;;;;;12.09;100.00;101702.66;5065319;28;19935;-87
2022/07/12 02:14:16;;;;;;;;;;;;;;;11.89;100.00;101703.31;5066228;28;19929;-87
2022/07/12 02:16:44;;;;;;;;;;;;;;;11.92;100.00;101705.53;5057497;28;19929;-86
2022/07/12 02:19:17;;;;;;;;;;;;;;;12.01;100.00;101708.59;5070015;28;19929;-87
2022/07/12 02:21:50;;;;;;;;;;;;;;;11.91;100.00;101718.34;5069556;28;19925;-87
2022/07/12 02:24:19;;;;;;;;;;;;;;;11.93;100.00;101711.78;5066025;28;19935;-85
2022/07/12 02:26:52;;;;;;;;;;;;;;;11.99;100.00;101710.78;5063560;28;19935;-86
2022/07/12 02:29:25;;;;;;;;;;;;;;;11.93;100.00;101717.25;5064107;28;19943;-87
2022/07/12 02:31:58;;;;;;;;;;;;;;;11.94;100.00;101716.19;5062964;28;19929;-86
2022/07/12 02:34:31;;;;;;;;;;;;;;;12.00;100.00;101718.72;5056966;28;19925;-86
2022/07/12 02:37:00;;;;;;;;;;;;;;;12.05;100.00;101726.09;5069116;28;19931;-86
2022/07/12 02:39:34;;;;;;;;;;;;;;;11.99;100.00;101732.63;5063035;28;19928;-86
2022/07/12 02:42:07;;;;;;;;;;;;;;;11.98;100.00;101739.16;5061560;28;19929;-86
2022/07/12 02:44:35;;;;;;;;;;;;;;;11.90;100.00;101732.25;5067526;28;19931;-86
2022/07/12 02:47:08;;;;;;;;;;;;;;;11.93;100.00;101736.34;5068515;28;19928;-86
2022/07/12 02:49:41;;;;;;;;;;;;;;;11.94;100.00;101738.84;5064625;28;20284;-86
2022/07/12 02:52:09;;;;;;;;;;;;;;;11.99;100.00;101748.97;5062205;28;20301;-85
2022/07/12 02:54:43;;;;;;;;;;;;;;;11.98;100.00;101758.25;5062963;28;19936;-86
2022/07/12 02:57:11;;;;;;;;;;;;;;;11.93;100.00;101748.06;5062232;28;20292;-84
2022/07/12 02:59:39;;;;;;;;;;;;;;;11.80;100.00;101754.00;5065768;28;19924;-85
2022/07/12 03:02:12;;;;;;;;;;;;;;;11.83;100.00;101758.94;5063998;28;19940;-86
2022/07/12 03:04:44;;;;;;;;;;;;;;;11.78;100.00;101767.91;5069282;28;19951;-86
2022/07/12 03:07:17;;;;;;;;;;;;;;;11.78;100.00;101770.63;5061140;28;19928;-84
2022/07/12 03:09:52;;;;;;;;;;;;;;;11.87;100.00;101773.69;5060836;28;19925;-84
2022/07/12 03:12:20;;;;;;;;;;;;;;;11.84;100.00;101775.03;5059481;28;20270;-85
2022/07/12 03:14:53;;;;;;;;;;;;;;;11.82;100.00;101765.47;5060246;28;19932;-84
2022/07/12 03:17:20;;;;;;;;;;;;;;;11.85;100.00;101764.97;5060029;28;19932;-85
2022/07/12 03:19:53;;;;;;;;;;;;;;;11.82;100.00;101773.63;5063981;28;19932;-85
2022/07/12 03:22:27;;;;;;;;;;;;;;;11.77;100.00;101777.16;5065340;28;19936;-84
2022/07/12 03:24:56;;;;;;;;;;;;;;;11.78;100.00;101780.69;5070686;28;19931;-84
2022/07/12 03:27:31;;;;;;;;;;;;;;;11.77;100.00;101777.16;5059438;28;19948;-85
2022/07/12 03:29:59;;;;;;;;;;;;;;;11.77;100.00;101777.16;5059458;28;19928;-83
2022/07/12 03:32:32;;;;;;;;;;;;;;;11.73;100.00;101779.56;5057966;28;19939;-85
2022/07/12 03:35:05;;;;;;;;;;;;;;;11.77;100.00;101782.63;5054745;28;19928;-85
2022/07/12 03:37:42;;;;;;;;;;;;;;;11.74;100.00;101789.41;5068861;28;20277;-85
2022/07/12 03:40:12;;;;;;;;;;;;;;;11.77;100.00;101795.44;5060492;28;19924;-85
2022/07/12 03:42:45;;;;;;;;;;;;;;;11.81;100.00;101805.56;5060832;28;19924;-85
2022/07/12 03:45:19;;;;;;;;;;;;;;;11.83;100.00;101797.91;5060926;28;19936;-86
2022/07/12 03:47:51;;;;;;;;;;;;;;;11.78;100.00;101802.50;5063988;28;19932;-87
2022/07/12 03:50:19;;;;;;;;;;;;;;;11.78;100.00;101800.63;5062739;28;19928;-85
2022/07/12 03:52:48;;;;;;;;;;;;;;;11.84;100.00;101804.22;5073902;28;19932;-86
2022/07/12 03:55:22;;;;;;;;;;;;;;;11.86;100.00;101802.88;5061005;28;19924;-87
2022/07/12 03:57:55;;;;;;;;;;;;;;;11.85;100.00;101808.59;5066841;28;20385;-87
2022/07/12 04:00:28;;;;;;;;;;;;;;;11.90;100.00;101801.28;5066926;28;19943;-86
2022/07/12 04:03:02;;;;;;;;;;;;;;;11.86;100.00;101797.41;5059648;28;19925;-86
2022/07/12 04:05:34;;;;;;;;;;;;;;;11.88;100.00;101800.69;5062792;28;19931;-85
2022/07/12 04:08:07;;;;;;;;;;;;;;;11.90;100.00;101809.47;5060132;28;19933;-85
2022/07/12 04:10:42;;;;;;;;;;;;;;;11.94;100.00;101808.94;5080354;28;19924;-85
2022/07/12 04:13:14;;;;;;;;;;;;;;;11.97;100.00;101813.88;5061338;28;19931;-86
2022/07/12 04:15:47;;;;;;;;;;;;;;;11.93;100.00;101804.53;5068125;28;19932;-86
2022/07/12 04:18:20;;;;;;;;;;;;;;;11.99;100.00;101815.28;5062334;28;19932;-87
2022/07/12 04:20:53;;;;;;;;;;;;;;;12.02;100.00;101819.38;5063696;28;19932;-85
2022/07/12 04:23:26;;;;;;;;;;;;;;;12.04;100.00;101825.38;5074381;28;19924;-84
2022/07/12 04:26:01;;;;;;;;;;;;;;;12.08;100.00;101831.97;5065486;28;19929;-85
2022/07/12 04:28:29;;;;;;;;;;;;;;;12.15;100.00;101831.75;5069166;28;20324;-88
2022/07/12 04:30:56;;;;;;;;;;;;;;;12.20;100.00;101829.06;5070248;28;19929;-84
2022/07/12 04:33:29;;;;;;;;;;;;;;;12.27;100.00;101831.56;5065652;28;19928;-84
2022/07/12 04:36:02;;;;;;;;;;;;;;;12.27;100.00;101828.84;5057502;28;19931;-85
2022/07/12 04:38:35;;;;;;;;;;;;;;;12.33;100.00;101825.88;5070271;28;20316;-88
2022/07/12 04:41:09;;;;;;;;;;;;;;;12.35;100.00;101822.88;5062164;28;19956;-83
2022/07/12 04:43:42;;;;;;;;;;;;;;;12.39;100.00;101821.28;5064496;28;19943;-84
2022/07/12 04:46:15;;;;;;;;;;;;;;;12.47;100.00;101814.47;5063853;28;19929;-84
2022/07/12 04:48:48;;;;;;;;;;;;;;;12.54;100.00;101821.34;5070502;28;19952;-86
2022/07/12 04:51:17;;;;;;;;;;;;;;;12.62;100.00;101813.72;5063573;28;19932;-84
2022/07/12 04:53:45;;;;;;;;;;;;;;;12.67;100.00;101819.22;5076929;28;19999;-86
2022/07/12 04:56:19;;;;;;;;;;;;;;;12.83;100.00;101814.63;5063835;28;19996;-83
2022/07/12 04:58:48;;;;;;;;;;;;;;;12.97;100.00;101809.50;5067869;28;19924;-83
2022/07/12 05:01:21;;;;;;;;;;;;;;;13.14;100.00;101809.28;5066526;28;19924;-85
2022/07/12 05:03:54;;;;;;;;;;;;;;;13.22;100.00;101808.75;5057492;28;19928;-85
2022/07/12 05:06:27;;;;;;;;;;;;;;;13.33;100.00;101807.69;5066219;28;19996;-87
2022/07/12 05:09:00;;;;;;;;;;;;;;;13.48;100.00;101800.63;5066639;28;19979;-85
2022/07/12 05:11:34;;;;;;;;;;;;;;;13.85;100.00;101805.84;5065809;28;20487;-84
2022/07/12 05:14:07;;;;;;;;;;;;;;;15.11;100.00;101808.78;5060514;28;19931;-85
2022/07/12 05:16:40;;;;;;;;;;;;;;;16.76;100.00;101797.13;5055606;28;19931;-86
2022/07/12 05:19:08;;;;;;;;;;;;;;;17.60;100.00;101789.38;5063433;28;19925;-85
2022/07/12 05:21:36;;;;;;;;;;;;;;;19.13;100.00;101792.25;5054300;28;19932;-89
2022/07/12 05:24:09;;;;;;;;;;;;;;;20.08;100.00;101784.94;5070755;28;19928;-85
2022/07/12 05:26:43;;;;;;;;;;;;;;;20.54;100.00;101790.00;5055395;28;19929;-86
2022/07/12 05:29:16;;;;;;;;;;;;;;;21.73;100.00;101791.91;5062558;28;19928;-86
2022/07/12 05:31:49;;;;;;;;;;;;;;;21.22;100.00;101794.38;5060792;28;19932;-90
2022/07/12 05:34:17;;;;;;;;;;;;;;;20.56;100.00;101796.03;5060969;28;19924;-88
2022/07/12 05:36:50;;;;;;;;;;;;;;;20.93;100.00;101808.84;5060688;28;19940;-86
2022/07/12 05:39:23;;;;;;;;;;;;;;;20.02;100.00;101804.44;5064377;28;19924;-89
2022/07/12 05:41:57;;;;;;;;;;;;;;;18.72;100.00;101815.16;5062793;28;19925;-88
2022/07/12 05:44:30;;;;;;;;;;;;;;;18.14;100.00;101817.38;5062111;28;19935;-89
2022/07/12 05:47:03;;;;;;;;;;;;;;;17.70;100.00;101824.97;5059303;28;19929;-87
2022/07/12 05:49:36;;;;;;;;;;;;;;;17.32;100.00;101825.81;5062277;28;19924;-90
2022/07/12 05:54:58;;;;;;;;;;;;;;;18.08;100.00;101813.09;5009221;28;19951;-83
2022/07/12 05:57:33;;;;;;;;;;;;;;;18.14;100.00;101812.66;5062018;28;19925;-87
2022/07/12 06:00:06;;;;;;;;;;;;;;;17.27;100.00;101817.63;5062346;28;20408;-89
2022/07/12 06:02:34;;;;;;;;;;;;;;;17.36;100.00;101815.06;5058026;28;19936;-84
2022/07/12 06:05:02;;;;;;;;;;;;;;;17.75;100.00;101813.88;5067212;28;19947;-85
2022/07/12 06:07:35;;;;;;;;;;;;;;;17.44;100.00;101817.13;5064631;28;19924;-85
2022/07/12 06:10:08;;;;;;;;;;;;;;;16.61;100.00;101822.91;5062921;28;19943;-84
2022/07/12 06:12:43;;;;;;;;;;;;;;;16.43;100.00;101826.38;5057885;28;20431;-84
2022/07/12 06:15:11;;;;;;;;;;;;;;;16.43;100.00;101826.38;5062667;28;19950;-88
2022/07/12 06:17:44;;;;;;;;;;;;;;;16.52;100.00;101832.03;5065255;28;20385;-92
2022/07/12 06:20:12;;;;;;;;;;;;;;;16.44;100.00;101839.81;5061166;28;20447;-90
2022/07/12 06:22:40;;;;;;;;;;;;;;;16.43;100.00;101834.63;5065112;28;19932;-91
2022/07/12 06:25:08;;;;;;;;;;;;;;;16.40;100.00;101827.78;5063452;28;19931;-94
2022/07/12 06:27:36;;;;;;;;;;;;;;;16.61;100.00;101825.66;5059876;28;19932;-85
2022/07/12 06:30:11;;;;;;;;;;;;;;;16.42;100.00;101825.56;5056721;28;19929;-84
2022/07/12 06:32:44;;;;;;;;;;;;;;;16.46;100.00;101836.78;5055880;28;19940;-87
2022/07/12 06:35:13;;;;;;;;;;;;;;;16.43;100.00;101826.38;5056606;28;19924;-92
2022/07/12 06:37:40;;;;;;;;;;;;;;;16.23;100.00;101827.44;5049997;28;19939;-91
2022/07/12 06:40:16;;;;;;;;;;;;;;;16.27;100.00;101831.22;5037248;28;20329;-92
2022/07/12 06:42:44;;;;;;;;;;;;;;;16.21;100.00;101837.88;5037356;28;21301;-86
2022/07/12 06:45:19;;;;;;;;;;;;;;;16.30;100.00;101834.19;5039397;28;19939;-86
2022/07/12 06:47:52;;;;;;;;;;;;;;;16.20;100.00;101836.22;5040454;28;19933;-87
2022/07/12 06:50:20;;;;;;;;;;;;;;;16.32;100.00;101832.00;5037997;28;19932;-88
2022/07/12 06:52:48;;;;;;;;;;;;;;;16.37;100.00;101833.06;5044048;28;20396;-92
2022/07/12 06:55:16;;;;;;;;;;;;;;;16.14;100.00;101830.81;5048704;28;19933;-88
2022/07/12 06:57:49;;;;;;;;;;;;;;;16.33;100.00;101836.34;5042424;28;19937;-89
2022/07/12 07:00:23;;;;;;;;;;;;;;;16.31;100.00;101835.84;5040849;28;20266;-87
2022/07/12 07:02:51;;;;;;;;;;;;;;;16.72;100.00;101839.25;5045155;28;19936;-88
2022/07/12 07:05:19;;;;;;;;;;;;;;;17.08;100.00;101825.91;5045181;28;19939;-90
2022/07/12 07:07:52;;;;;;;;;;;;;;;17.27;100.00;101828.63;5040680;28;19951;-87
2022/07/12 07:10:25;;;;;;;;;;;;;;;17.31;100.00;101824.19;5055188;28;19955;-88
2022/07/12 07:12:53;;;;;;;;;;;;;;;17.46;100.00;101825.91;5063077;28;19939;-91
2022/07/12 07:15:28;;;;;;;;;;;;;;;17.54;100.00;101821.66;5066752;28;19935;-89
2022/07/12 07:18:01;;;;;;;;;;;;;;;17.70;100.00;101811.19;5057772;28;20387;-91
2022/07/12 07:20:34;;;;;;;;;;;;;;;17.60;100.00;101812.19;5052236;28;19934;-86
2022/07/12 07:23:07;;;;;;;;;;;;;;;17.55;100.00;101805.94;5043560;28;19940;-89
2022/07/12 07:25:40;;;;;;;;;;;;;;;18.00;100.00;101809.09;5039485;28;20118;-85
2022/07/12 07:28:13;;;;;;;;;;;;;;;17.89;100.00;101804.84;5039331;28;20020;-89
2022/07/12 07:30:53;;;;;;;;;;;;;;;17.85;100.00;101812.88;5058740;28;19935;-90
2022/07/12 07:33:26;;;;;;;;;;;;;;;17.41;100.00;101812.19;5056301;28;19924;-88
2022/07/12 07:35:59;;;;;;;;;;;;;;;17.59;100.00;101807.78;5048257;28;19925;-87
2022/07/12 07:38:27;;;;;;;;;;;;;;;17.33;100.00;101812.88;5042524;28;19932;-88
2022/07/12 07:40:55;;;;;;;;;;;;;;;17.24;100.00;101812.75;5048188;28;19940;-91
2022/07/12 07:43:28;;;;;;;;;;;;;;;17.42;100.00;101813.03;5060306;28;19928;-85
2022/07/12 07:46:03;;;;;;;;;;;;;;;17.34;100.00;101818.09;5067859;28;19929;-88
2022/07/12 07:48:31;;;;;;;;;;;;;;;17.23;100.00;101824.03;5061783;28;20281;-90
2022/07/12 07:51:04;;;;;;;;;;;;;;;17.13;100.00;101820.31;5056925;28;20405;-90
2022/07/12 07:53:32;;;;;;;;;;;;;;;17.37;100.00;101805.66;5063192;28;19932;-91
2022/07/12 07:56:00;;;;;;;;;;;;;;;17.54;100.00;101810.66;5058326;28;19932;-90
2022/07/12 07:58:33;;;;;;;;;;;;;;;17.56;100.00;101804.84;5046037;28;20396;-88
2022/07/12 08:01:02;;;;;;;;;;;;;;;17.79;100.00;101797.59;5045416;28;19938;-87
2022/07/12 08:03:30;;;;;;;;;;;;;;;17.92;100.00;101807.81;5045740;28;19932;-87
2022/07/12 08:06:03;;;;;;;;;;;;;;;18.02;100.00;101804.06;5045575;28;19939;-88
2022/07/12 08:08:36;;;;;;;;;;;;;;;17.98;100.00;101797.53;5052519;28;20089;-91
2022/07/12 08:11:04;;;;;;;;;;;;;;;17.98;100.00;101792.03;5045741;28;19935;-88
2022/07/12 08:13:32;;;;;;;;;;;;;;;18.05;100.00;101797.16;5039609;28;19932;-84
2022/07/12 08:16:00;;;;;;;;;;;;;;;17.85;100.00;101804.63;5040715;28;19932;-87
2022/07/12 08:18:34;;;;;;;;;;;;;;;18.16;100.00;101815.94;5056069;28;19933;-91
2022/07/12 08:21:07;;;;;;;;;;;;;;;18.24;100.00;101808.91;5053066;28;19932;-88
2022/07/12 08:23:35;;;;;;;;;;;;;;;18.26;100.00;101816.88;5046442;28;20349;-88
2022/07/12 08:26:04;;;;;;;;;;;;;;;18.21;100.00;101816.97;5045924;28;19936;-88
2022/07/12 08:28:37;;;;;;;;;;;;;;;17.89;100.00;101824.13;5042358;28;20408;-92
2022/07/12 08:31:05;;;;;;;;;;;;;;;18.06;100.00;101818.06;5044979;28;19935;-87
2022/07/12 08:33:33;;;;;;;;;;;;;;;18.14;100.00;101809.91;5023890;28;19954;-88
2022/07/12 08:36:08;;;;;;;;;;;;;;;18.09;100.00;101810.03;5041318;28;20325;-90
2022/07/12 08:38:43;;;;;;;;;;;;;;;18.13;100.00;101810.22;5047295;28;20512;-88
2022/07/12 08:41:12;;;;;;;;;;;;;;;18.20;100.00;101813.38;5046090;28;19933;-88
2022/07/12 08:43:41;;;;;;;;;;;;;;;18.25;100.00;101806.97;5045438;28;19955;-86
2022/07/12 08:46:15;;;;;;;;;;;;;;;18.25;100.00;101809.75;5043744;28;19935;-87
2022/07/12 08:48:48;;;;;;;;;;;;;;;18.44;100.00;101802.19;5051818;28;20289;-92
2022/07/12 08:51:22;;;;;;;;;;;;;;;18.64;100.00;101806.50;5048369;28;20167;-89
2022/07/12 08:54:08;;;;;;;;;;;;;;;19.06;100.00;101809.22;5045334;28;19932;-90
2022/07/12 08:56:38;;;;;;;;;;;;;;;19.19;100.00;101815.81;5048752;28;20282;-88
2022/07/12 08:59:15;;;;;;;;;;;;;;;19.28;100.00;101813.13;5049916;28;19932;-88
2022/07/12 09:01:49;;;;;;;;;;;;;;;19.00;100.00;101810.44;5043127;28;19932;-88
2022/07/12 09:04:18;;;;;;;;;;;;;;;18.88;100.00;101816.50;5047034;28;19940;-88
2022/07/12 09:06:48;;;;;;;;;;;;;;;19.06;100.00;101811.97;5046410;28;20542;-86
2022/07/12 09:09:26;;;;;;;;;;;;;;;18.88;100.00;101821.19;5052383;28;19935;-88
2022/07/12 09:11:59;;;;;;;;;;;;;;;18.97;100.00;101822.09;5054703;28;19932;-90
2022/07/12 09:14:27;;;;;;;;;;;;;;;19.05;100.00;101810.34;5067009;28;19928;-91
2022/07/12 09:16:59;;;;;;;;;;;;;;;19.16;100.00;101805.41;5066111;28;19929;-89
2022/07/12 09:19:27;;;;;;;;;;;;;;;19.27;100.00;101808.75;5065201;28;19925;-89
2022/07/12 09:21:56;;;;;;;;;;;;;;;19.46;100.00;101803.88;5056608;28;19928;-87
2022/07/12 09:24:25;;;;;;;;;;;;;;;19.13;100.00;101804.06;5047343;28;19932;-88
2022/07/12 09:26:54;;;;;;;;;;;;;;;19.17;100.00;101796.00;5057623;28;21460;-86
2022/07/12 09:29:22;;;;;;;;;;;;;;;19.11;100.00;101794.47;5056197;28;19932;-90
2022/07/12 09:37:27;;;;;;;;;;;;;;;19.04;100.00;101786.63;5067339;28;19925;-86
2022/07/12 09:40:28;;;;;;;;;;;;;;;18.92;100.00;101789.09;5058149;28;20007;-87
2022/07/12 09:43:05;;;;;;;;;;;;;;;19.02;100.00;101788.88;5060401;28;20320;-89
2022/07/12 09:45:40;;;;;;;;;;;;;;;19.41;100.00;101794.91;5056357;28;19932;-90
2022/07/12 09:48:09;;;;;;;;;;;;;;;19.49;100.00;101794.94;5051851;28;20653;-88
2022/07/12 09:50:46;;;;;;;;;;;;;;;19.53;100.00;101803.44;5053214;28;20442;-88
2022/07/12 09:53:22;;;;;;;;;;;;;;;19.42;100.00;101797.34;5053853;28;19940;-88
2022/07/12 09:55:52;;;;;;;;;;;;;;;19.77;100.00;101794.81;5064208;28;20772;-86
2022/07/12 09:58:22;;;;;;;;;;;;;;;19.82;100.00;101793.91;5063258;28;19931;-87
2022/07/12 10:00:56;;;;;;;;;;;;;;;19.91;100.00;101797.53;5062136;28;19928;-86
2022/07/12 10:03:24;;;;;;;;;;;;;;;19.89;100.00;101794.28;5053055;28;19932;-88
2022/07/12 10:06:00;;;;;;;;;;;;;;;19.96;100.00;101794.63;5050573;28;19932;-88
2022/07/12 10:08:30;;;;;;;;;;;;;;;20.04;100.00;101801.34;5051063;28;20071;-87
2022/07/12 10:10:58;;;;;;;;;;;;;;;19.97;100.00;101803.72;5059650;28;19924;-88
2022/07/12 10:13:32;;;;;;;;;;;;;;;19.99;100.00;101799.53;5055002;28;19940;-86
2022/07/12 10:16:06;;;;;;;;;;;;;;;20.01;100.00;101796.44;5052107;28;19934;-86
2022/07/12 10:18:34;;;;;;;;;;;;;;;20.15;100.00;101799.09;5053329;28;19936;-85
2022/07/12 10:21:18;;;;;;;;;;;;;;;20.43;100.00;101796.97;5047544;28;19928;-86
2022/07/12 10:23:48;;;;;;;;;;;;;;;20.38;100.00;101802.63;5045457;28;19932;-90
2022/07/12 10:26:38;;;;;;;;;;;;;;;20.37;100.00;101798.25;5048054;28;19932;-87
2022/07/12 10:29:19;;;;;;;;;;;;;;;20.76;100.00;101793.84;5044933;28;19924;-89
2022/07/12 10:31:53;;;;;;;;;;;;;;;20.88;100.00;101798.72;5058710;28;19932;-93
2022/07/12 10:34:27;;;;;;;;;;;;;;;20.70;100.00;101784.03;5031934;28;19929;-89
2022/07/12 10:37:11;;;;;;;;;;;;;;;20.76;100.00;101785.53;5053981;28;19943;-87
2022/07/12 10:40:08;;;;;;;;;;;;;;;21.00;100.00;101782.28;5059804;28;19928;-91
2022/07/12 10:42:36;;;;;;;;;;;;;;;20.92;100.00;101785.06;5066085;28;19924;-88
2022/07/12 10:45:11;;;;;;;;;;;;;;;21.02;100.00;101779.22;5065972;28;19925;-87
2022/07/12 10:47:54;;;;;;;;;;;;;;;21.48;100.00;101779.69;5061174;28;20371;-89
2022/07/12 10:50:37;;;;;;;;;;;;;;;21.34;100.00;101766.84;5059662;28;19932;-91
2022/07/12 10:53:23;;;;;;;;;;;;;;;21.41;100.00;101769.13;5056519;28;19933;-89
2022/07/12 10:56:14;;;;;;;;;;;;;;;21.79;100.00;101762.88;5046774;28;19932;-87
2022/07/12 10:58:48;;;;;;;;;;;;;;;21.96;100.00;101770.34;5042811;28;19933;-87
2022/07/12 11:01:18;;;;;;;;;;;;;;;21.95;100.00;101767.91;5044373;28;19933;-88
2022/07/12 11:03:47;;;;;;;;;;;;;;;21.92;100.00;101764.63;5043182;28;19940;-86
2022/07/12 11:06:22;;;;;;;;;;;;;;;22.06;100.00;101763.59;5040855;28;20459;-93
2022/07/12 11:08:56;;;;;;;;;;;;;;;22.15;100.00;101763.56;5045583;28;20636;-93
2022/07/12 11:11:31;;;;;;;;;;;;;;;22.24;100.00;101756.81;5048288;28;19932;-88
2022/07/12 11:14:04;;;;;;;;;;;;;;;22.32;100.00;101759.91;5064947;28;19940;-90
2022/07/12 11:16:32;;;;;;;;;;;;;;;22.39;100.00;101766.56;5045632;28;19932;-89
2022/07/12 11:19:01;;;;;;;;;;;;;;;22.02;100.00;101755.13;5048076;28;20344;-89
2022/07/12 11:21:34;;;;;;;;;;;;;;;21.86;100.00;101759.59;5046978;28;19932;-87
2022/07/12 11:24:02;;;;;;;;;;;;;;;22.24;100.00;101754.06;5043000;28;19932;-87
2022/07/12 11:26:36;;;;;;;;;;;;;;;22.14;95.39;101751.66;5051045;28;20369;-89
2022/07/12 11:29:09;;;;;;;;;;;;;;;22.22;100.00;101748.03;5047399;28;19935;-89
2022/07/12 11:31:42;;;;;;;;;;;;;;;22.24;100.00;101753.25;5051928;28;19928;-88
2022/07/12 11:34:19;;;;;;;;;;;;;;;22.17;98.82;101750.19;5014696;28;19940;-89
2022/07/12 11:36:48;;;;;;;;;;;;;;;22.39;100.00;101749.13;5039442;28;21088;-87
2022/07/12 11:39:30;;;;;;;;;;;;;;;22.33;100.00;101736.56;5041794;28;19932;-90
2022/07/12 11:42:00;;;;;;;;;;;;;;;22.50;100.00;101761.47;5052308;28;19940;-88
2022/07/12 11:44:43;;;;;;;;;;;;;;;22.44;100.00;101731.47;5044132;28;19933;-85
2022/07/12 11:47:11;;;;;;;;;;;;;;;22.70;100.00;101731.31;5041153;28;19933;-91
2022/07/12 11:49:45;;;;;;;;;;;;;;;22.79;100.00;101731.22;5040997;28;19933;-89
2022/07/12 11:52:18;;;;;;;;;;;;;;;22.56;97.86;101735.16;5050253;28;20140;-87
2022/07/12 11:54:47;;;;;;;;;;;;;;;22.66;99.60;101716.47;5044894;28;20633;-82
2022/07/12 11:57:21;;;;;;;;;;;;;;;22.82;100.00;101727.81;5045276;28;19932;-84
2022/07/12 11:59:49;;;;;;;;;;;;;;;23.19;100.00;101719.69;5039258;28;19933;-83
2022/07/12 12:02:23;;;;;;;;;;;;;;;23.09;92.08;101712.53;5053933;28;20412;-85
2022/07/12 12:04:51;;;;;;;;;;;;;;;23.33;95.87;101719.38;5049435;28;19932;-82
2022/07/12 12:07:20;;;;;;;;;;;;;;;23.07;85.65;101712.88;5046180;28;19939;-88
2022/07/12 12:10:00;;;;;;;;;;;;;;;23.41;98.50;101710.16;5042257;28;19939;-87
2022/07/12 12:12:36;;;;;;;;;;;;;;;23.48;89.44;101715.13;5046108;28;19932;-87
2022/07/12 12:15:10;;;;;;;;;;;;;;;23.56;89.48;101717.00;5049998;28;19932;-88
2022/07/12 12:17:47;;;;;;;;;;;;;;;23.54;94.53;101716.53;5038776;28;19939;-89
2022/07/12 12:20:21;;;;;;;;;;;;;;;23.74;95.84;101712.88;5043436;28;20003;-88
2022/07/12 12:22:50;;;;;;;;;;;;;;;23.93;92.52;101709.59;5044264;28;19932;-89
2022/07/12 12:25:18;;;;;;;;;;;;;;;23.92;93.66;101709.94;5039152;28;20363;-86
2022/07/12 12:27:56;;;;;;;;;;;;;;;23.86;87.48;101694.59;5040235;28;19932;-90
2022/07/12 12:30:30;;;;;;;;;;;;;;;24.01;84.71;101709.81;5043884;28;19932;-87
2022/07/12 12:33:04;;;;;;;;;;;;;;;23.71;82.58;101701.63;5015846;28;19932;-91
2022/07/12 12:35:32;;;;;;;;;;;;;;;23.83;85.34;101698.88;5044748;28;19932;-86
2022/07/12 12:38:01;;;;;;;;;;;;;;;23.92;81.52;101707.94;5047630;28;19932;-89
2022/07/12 12:40:30;;;;;;;;;;;;;;;24.18;82.82;101704.03;5047788;28;19933;-91
2022/07/12 12:43:08;;;;;;;;;;;;;;;23.93;76.30;101701.25;5044495;28;20224;-87
2022/07/12 12:45:49;;;;;;;;;;;;;;;23.88;85.23;101703.44;5044360;28;19940;-91
2022/07/12 12:48:23;;;;;;;;;;;;;;;24.16;87.60;101694.41;5042355;28;19928;-91
2022/07/12 12:50:52;;;;;;;;;;;;;;;24.13;91.00;101701.47;5044673;28;19936;-87
2022/07/12 12:53:25;;;;;;;;;;;;;;;23.83;88.38;101693.31;5045648;28;19933;-86
2022/07/12 12:55:58;;;;;;;;;;;;;;;23.80;85.16;101691.22;5042166;28;19933;-89
2022/07/12 12:58:32;;;;;;;;;;;;;;;24.04;88.05;101693.25;5043996;28;19940;-86
2022/07/12 13:01:06;;;;;;;;;;;;;;;23.93;88.27;101681.78;5052178;28;19925;-90